createdAt,value
2019-03-13T00:01:28.030Z,6.53
2019-03-13T00:02:37.441Z,6.30
2019-03-13T00:03:42.736Z,6.20
2019-03-13T00:04:47.991Z,6.43
2019-03-13T00:05:53.703Z,6.57
2019-03-13T00:06:58.980Z,6.97
2019-03-13T00:08:04.294Z,6.87
2019-03-13T00:09:12.702Z,6.37
2019-03-13T00:10:18.137Z,6.00
2019-03-13T00:11:23.385Z,6.57
2019-03-13T00:12:28.648Z,5.90
2019-03-13T00:13:33.978Z,6.30
2019-03-13T00:14:39.251Z,6.23
2019-03-13T00:15:44.540Z,4.83
2019-03-13T00:16:49.730Z,5.60
2019-03-13T00:17:56.746Z,5.27
2019-03-13T00:19:02.031Z,5.60
2019-03-13T00:20:07.852Z,6.00
2019-03-13T00:21:13.190Z,5.77
2019-03-13T00:22:18.375Z,5.47
2019-03-13T00:23:23.585Z,5.33
2019-03-13T00:24:28.876Z,5.50
2019-03-13T00:25:34.132Z,5.00
2019-03-13T00:26:40.470Z,5.30
2019-03-13T00:27:45.690Z,5.27
2019-03-13T00:28:50.875Z,5.37
2019-03-13T00:29:56.133Z,5.37
2019-03-13T00:31:01.386Z,5.00
2019-03-13T00:32:09.646Z,4.73
2019-03-13T00:33:14.861Z,5.37
2019-03-13T00:34:20.127Z,4.70
2019-03-13T00:35:25.363Z,5.03
2019-03-13T00:36:30.725Z,5.10
2019-03-13T00:37:35.958Z,4.60
2019-03-13T00:38:41.262Z,5.40
2019-03-13T00:39:46.538Z,4.73
2019-03-13T00:40:51.836Z,4.87
2019-03-13T00:41:57.110Z,4.83
2019-03-13T00:43:02.397Z,5.20
2019-03-13T00:44:07.671Z,5.50
2019-03-13T00:45:13.904Z,4.90
2019-03-13T00:46:19.144Z,5.10
2019-03-13T00:47:24.301Z,5.00
2019-03-13T00:48:29.496Z,5.10
2019-03-13T00:49:34.810Z,5.33
2019-03-13T00:50:40.149Z,5.57
2019-03-13T00:51:45.363Z,5.77
2019-03-13T00:52:50.622Z,4.93
2019-03-13T00:53:55.832Z,5.20
2019-03-13T00:55:01.116Z,5.50
2019-03-13T00:56:06.495Z,4.93
2019-03-13T00:57:11.686Z,5.70
2019-03-13T00:58:16.959Z,5.60
2019-03-13T00:59:22.218Z,5.23
2019-03-13T01:00:45.282Z,6.17
2019-03-13T01:02:07.920Z,5.60
2019-03-13T01:03:32.213Z,6.07
2019-03-13T01:04:59.497Z,6.07
2019-03-13T01:06:06.856Z,6.73
2019-03-13T01:07:12.576Z,6.60
2019-03-13T01:08:18.902Z,6.83
2019-03-13T01:09:24.034Z,7.30
2019-03-13T01:10:29.349Z,6.80
2019-03-13T01:11:34.620Z,7.00
2019-03-13T01:12:39.921Z,6.80
2019-03-13T01:13:45.095Z,7.37
2019-03-13T01:14:50.315Z,7.47
2019-03-13T01:15:55.576Z,7.83
2019-03-13T01:17:00.890Z,7.50
2019-03-13T01:18:06.134Z,7.73
2019-03-13T01:19:11.315Z,8.00
2019-03-13T01:20:16.489Z,8.00
2019-03-13T01:21:21.711Z,7.90
2019-03-13T01:22:27.012Z,8.73
2019-03-13T01:23:32.171Z,8.47
2019-03-13T01:24:37.400Z,7.63
2019-03-13T01:25:42.595Z,7.70
2019-03-13T01:26:47.899Z,7.90
2019-03-13T01:27:53.167Z,8.50
2019-03-13T01:28:58.451Z,7.53
2019-03-13T01:30:04.331Z,8.73
2019-03-13T01:31:26.382Z,8.07
2019-03-13T01:32:44.871Z,8.83
2019-03-13T01:33:50.010Z,8.73
2019-03-13T01:35:12.926Z,9.13
2019-03-13T01:36:18.257Z,8.20
2019-03-13T01:37:23.532Z,8.77
2019-03-13T01:38:30.008Z,9.07
2019-03-13T01:39:36.240Z,8.53
2019-03-13T01:40:41.530Z,9.07
2019-03-13T01:41:46.856Z,9.07
2019-03-13T01:42:52.110Z,9.10
2019-03-13T01:43:57.339Z,9.13
2019-03-13T01:45:02.622Z,9.60
2019-03-13T01:46:08.312Z,9.87
2019-03-13T01:47:13.593Z,9.43
2019-03-13T01:48:18.893Z,10.57
2019-03-13T01:49:24.058Z,10.30
2019-03-13T01:50:29.268Z,10.40
2019-03-13T01:51:34.390Z,9.97
2019-03-13T01:52:39.632Z,10.27
2019-03-13T01:53:44.918Z,10.10
2019-03-13T01:54:50.184Z,10.20
2019-03-13T01:55:55.374Z,10.60
2019-03-13T01:57:00.682Z,11.00
2019-03-13T01:58:05.986Z,10.70
2019-03-13T01:59:11.244Z,10.43
2019-03-13T02:00:17.256Z,10.90
2019-03-13T02:01:23.642Z,10.13
2019-03-13T02:02:28.890Z,11.23
2019-03-13T02:03:34.208Z,10.70
2019-03-13T02:04:39.501Z,10.23
2019-03-13T02:05:44.769Z,10.60
2019-03-13T02:06:51.048Z,11.93
2019-03-13T02:07:56.352Z,10.23
2019-03-13T02:09:01.662Z,11.30
2019-03-13T02:10:09.554Z,11.07
2019-03-13T02:11:14.818Z,10.03
2019-03-13T02:12:20.115Z,9.90
2019-03-13T02:13:25.331Z,10.63
2019-03-13T02:14:30.588Z,11.00
2019-03-13T02:15:35.856Z,10.53
2019-03-13T02:16:41.103Z,10.30
2019-03-13T02:17:46.481Z,10.77
2019-03-13T02:18:51.783Z,9.90
2019-03-13T02:19:57.055Z,10.07
2019-03-13T02:21:02.230Z,10.07
2019-03-13T02:22:07.614Z,9.30
2019-03-13T02:23:12.935Z,9.20
2019-03-13T02:24:18.269Z,8.97
2019-03-13T02:25:23.436Z,9.77
2019-03-13T02:26:28.768Z,9.00
2019-03-13T02:27:34.128Z,9.00
2019-03-13T02:28:39.429Z,8.73
2019-03-13T02:29:44.697Z,9.27
2019-03-13T02:30:49.937Z,8.93
2019-03-13T02:31:55.220Z,9.03
2019-03-13T02:33:00.522Z,10.00
2019-03-13T02:34:05.908Z,8.53
2019-03-13T02:35:11.226Z,9.13
2019-03-13T02:36:16.531Z,8.90
2019-03-13T02:37:21.780Z,8.77
2019-03-13T02:38:27.182Z,7.93
2019-03-13T02:39:32.619Z,8.40
2019-03-13T02:40:37.900Z,8.80
2019-03-13T02:41:43.175Z,7.97
2019-03-13T02:42:48.506Z,9.10
2019-03-13T02:43:53.956Z,7.43
2019-03-13T02:44:59.220Z,8.40
2019-03-13T02:46:04.372Z,7.03
2019-03-13T02:47:09.634Z,7.63
2019-03-13T02:48:14.998Z,7.27
2019-03-13T02:49:20.330Z,7.03
2019-03-13T02:50:25.629Z,6.57
2019-03-13T02:51:30.926Z,6.33
2019-03-13T02:52:36.253Z,6.10
2019-03-13T02:53:41.538Z,5.90
2019-03-13T02:54:47.912Z,6.03
2019-03-13T02:55:53.223Z,5.77
2019-03-13T02:56:58.597Z,5.53
2019-03-13T02:58:03.873Z,5.30
2019-03-13T02:59:09.099Z,4.70
2019-03-13T03:00:16.060Z,4.40
2019-03-13T03:01:29.086Z,5.07
2019-03-13T03:02:43.744Z,5.00
2019-03-13T03:03:52.169Z,4.33
2019-03-13T03:04:57.394Z,3.77
2019-03-13T03:06:02.635Z,4.53
2019-03-13T03:07:07.912Z,5.43
2019-03-13T03:08:13.206Z,4.60
2019-03-13T03:09:18.499Z,3.87
2019-03-13T03:10:23.724Z,4.07
2019-03-13T03:11:29.008Z,3.90
2019-03-13T03:12:34.233Z,4.33
2019-03-13T03:13:39.699Z,4.53
2019-03-13T03:15:00.939Z,4.10
2019-03-13T03:16:06.289Z,4.20
2019-03-13T03:17:12.618Z,3.80
2019-03-13T03:18:17.934Z,6.37
2019-03-13T03:19:23.201Z,3.80
2019-03-13T03:20:28.453Z,4.27
2019-03-13T03:21:33.684Z,4.57
2019-03-13T03:22:38.834Z,4.03
2019-03-13T03:23:45.474Z,4.60
2019-03-13T03:24:51.105Z,4.57
2019-03-13T03:25:56.410Z,3.57
2019-03-13T03:27:01.649Z,3.87
2019-03-13T03:28:06.916Z,4.00
2019-03-13T03:29:12.256Z,4.00
2019-03-13T03:30:20.535Z,4.30
2019-03-13T03:31:25.744Z,4.00
2019-03-13T03:32:31.049Z,4.37
2019-03-13T03:33:36.241Z,3.47
2019-03-13T03:34:41.550Z,3.80
2019-03-13T03:35:46.813Z,4.33
2019-03-13T03:36:52.037Z,4.30
2019-03-13T03:37:57.184Z,3.40
2019-03-13T03:39:02.528Z,4.10
2019-03-13T03:40:11.076Z,3.53
2019-03-13T03:41:16.335Z,3.67
2019-03-13T03:42:21.590Z,4.13
2019-03-13T03:43:39.303Z,4.53
2019-03-13T03:44:33.649Z,3.00
2019-03-13T03:45:38.909Z,3.93
2019-03-13T03:46:44.142Z,3.87
2019-03-13T03:47:49.431Z,3.37
2019-03-13T03:48:54.593Z,3.10
2019-03-13T03:49:59.789Z,3.57
2019-03-13T03:51:05.006Z,3.73
2019-03-13T03:52:10.250Z,3.70
2019-03-13T03:53:15.425Z,3.73
2019-03-13T03:54:20.723Z,3.53
2019-03-13T03:55:25.879Z,3.47
2019-03-13T03:56:31.157Z,4.23
2019-03-13T03:57:36.485Z,4.10
2019-03-13T03:58:41.691Z,3.43
2019-03-13T03:59:46.876Z,3.20
2019-03-13T04:00:52.162Z,3.13
2019-03-13T04:01:57.456Z,3.70
2019-03-13T04:03:02.737Z,2.37
2019-03-13T04:04:07.939Z,2.60
2019-03-13T04:05:13.293Z,3.77
2019-03-13T04:06:18.644Z,3.03
2019-03-13T04:07:24.017Z,2.63
2019-03-13T04:08:29.295Z,3.67
2019-03-13T04:09:34.535Z,3.63
2019-03-13T04:10:41.422Z,2.63
2019-03-13T04:11:46.676Z,3.90
2019-03-13T04:12:51.957Z,3.73
2019-03-13T04:13:58.191Z,3.23
2019-03-13T04:15:03.481Z,3.20
2019-03-13T04:16:08.709Z,3.30
2019-03-13T04:17:13.975Z,4.57
2019-03-13T04:18:19.259Z,3.70
2019-03-13T04:19:24.392Z,3.83
2019-03-13T04:20:30.480Z,3.40
2019-03-13T04:21:35.785Z,3.47
2019-03-13T04:22:41.049Z,4.17
2019-03-13T04:23:46.240Z,3.80
2019-03-13T04:24:51.839Z,3.93
2019-03-13T04:25:57.065Z,4.10
2019-03-13T04:27:02.433Z,4.50
2019-03-13T04:28:08.000Z,4.00
2019-03-13T04:29:13.312Z,4.70
2019-03-13T04:30:18.597Z,3.60
2019-03-13T04:31:23.947Z,3.57
2019-03-13T04:32:29.297Z,3.63
2019-03-13T04:33:34.568Z,3.47
2019-03-13T04:34:39.860Z,4.17
2019-03-13T04:35:45.169Z,3.70
2019-03-13T04:36:50.590Z,3.93
2019-03-13T04:37:55.848Z,3.77
2019-03-13T04:39:01.094Z,4.07
2019-03-13T04:40:08.047Z,3.43
2019-03-13T04:41:13.353Z,3.70
2019-03-13T04:42:18.510Z,3.60
2019-03-13T04:43:24.012Z,4.03
2019-03-13T04:44:30.281Z,3.83
2019-03-13T04:45:35.579Z,3.43
2019-03-13T04:46:40.828Z,3.47
2019-03-13T04:47:46.100Z,4.07
2019-03-13T04:48:51.410Z,3.63
2019-03-13T04:49:57.670Z,4.20
2019-03-13T04:51:02.993Z,3.30
2019-03-13T04:52:08.244Z,3.33
2019-03-13T04:53:13.541Z,4.00
2019-03-13T04:54:18.735Z,4.10
2019-03-13T04:55:24.067Z,3.67
2019-03-13T04:56:29.417Z,3.60
2019-03-13T04:57:34.736Z,3.70
2019-03-13T04:58:39.920Z,3.50
2019-03-13T04:59:45.221Z,4.40
2019-03-13T05:00:50.575Z,4.50
2019-03-13T05:01:56.975Z,3.57
2019-03-13T05:03:02.187Z,3.80
2019-03-13T05:04:07.434Z,4.40
2019-03-13T05:05:47.871Z,3.47
2019-03-13T05:06:53.118Z,2.77
2019-03-13T05:07:58.370Z,3.83
2019-03-13T05:09:11.782Z,3.63
2019-03-13T05:10:17.011Z,3.93
2019-03-13T05:11:22.352Z,3.17
2019-03-13T05:12:27.667Z,3.83
2019-03-13T05:13:32.878Z,3.23
2019-03-13T05:14:38.030Z,3.70
2019-03-13T05:15:44.355Z,3.93
2019-03-13T05:16:49.670Z,4.30
2019-03-13T05:17:54.875Z,3.03
2019-03-13T05:19:01.261Z,4.80
2019-03-13T05:20:07.018Z,4.43
2019-03-13T05:21:12.222Z,3.07
2019-03-13T05:22:17.478Z,3.50
2019-03-13T05:23:22.760Z,3.50
2019-03-13T05:24:28.068Z,2.90
2019-03-13T05:25:33.170Z,3.23
2019-03-13T05:26:38.439Z,3.67
2019-03-13T05:27:43.701Z,3.93
2019-03-13T05:28:49.006Z,3.67
2019-03-13T05:29:55.230Z,3.30
2019-03-13T05:31:00.474Z,3.03
2019-03-13T05:32:05.772Z,3.30
2019-03-13T05:33:11.080Z,3.17
2019-03-13T05:34:16.323Z,3.57
2019-03-13T05:35:21.534Z,3.83
2019-03-13T05:36:26.861Z,4.00
2019-03-13T05:37:32.044Z,3.87
2019-03-13T05:38:37.351Z,3.43
2019-03-13T05:39:42.529Z,3.63
2019-03-13T05:40:47.796Z,3.27
2019-03-13T05:41:53.056Z,3.43
2019-03-13T05:42:58.296Z,3.80
2019-03-13T05:44:03.613Z,3.93
2019-03-13T05:45:08.921Z,3.63
2019-03-13T05:46:14.125Z,3.30
2019-03-13T05:47:19.373Z,3.90
2019-03-13T05:48:24.642Z,3.87
2019-03-13T05:49:29.980Z,4.00
2019-03-13T05:50:35.267Z,3.63
2019-03-13T05:51:40.500Z,3.97
2019-03-13T05:52:45.802Z,3.30
2019-03-13T05:53:51.066Z,4.00
2019-03-13T05:54:56.301Z,3.93
2019-03-13T05:56:01.481Z,4.10
2019-03-13T05:57:06.872Z,3.93
2019-03-13T05:58:12.112Z,3.83
2019-03-13T05:59:17.556Z,3.83
2019-03-13T06:00:23.971Z,3.50
2019-03-13T06:01:29.407Z,2.80
2019-03-13T06:02:34.683Z,3.73
2019-03-13T06:03:41.013Z,3.80
2019-03-13T06:04:46.342Z,4.03
2019-03-13T06:05:51.519Z,3.67
2019-03-13T06:06:56.837Z,3.93
2019-03-13T06:08:02.091Z,3.53
2019-03-13T06:09:08.246Z,3.67
2019-03-13T06:10:13.716Z,4.10
2019-03-13T06:11:19.094Z,4.33
2019-03-13T06:12:24.370Z,3.70
2019-03-13T06:13:29.580Z,3.80
2019-03-13T06:14:35.010Z,3.73
2019-03-13T06:15:40.191Z,3.33
2019-03-13T06:16:45.374Z,4.20
2019-03-13T06:17:50.603Z,5.17
2019-03-13T06:18:55.897Z,3.27
2019-03-13T06:20:01.314Z,3.63
2019-03-13T06:21:06.509Z,4.47
2019-03-13T06:22:12.738Z,3.90
2019-03-13T06:23:18.069Z,3.53
2019-03-13T06:24:24.500Z,4.93
2019-03-13T06:25:29.789Z,4.20
2019-03-13T06:26:35.007Z,3.97
2019-03-13T06:27:40.284Z,4.07
2019-03-13T06:28:45.550Z,4.20
2019-03-13T06:29:50.802Z,4.33
2019-03-13T06:30:56.091Z,4.60
2019-03-13T06:32:04.803Z,3.97
2019-03-13T06:33:28.997Z,3.53
2019-03-13T06:34:34.666Z,4.10
2019-03-13T06:35:39.916Z,4.57
2019-03-13T06:36:45.150Z,4.53
2019-03-13T06:37:50.415Z,4.00
2019-03-13T06:38:55.685Z,3.70
2019-03-13T06:40:02.052Z,4.10
2019-03-13T06:41:07.448Z,4.63
2019-03-13T06:42:12.603Z,4.17
2019-03-13T06:43:17.859Z,4.47
2019-03-13T06:44:23.140Z,4.20
2019-03-13T06:45:28.372Z,3.73
2019-03-13T06:46:33.583Z,3.90
2019-03-13T06:47:38.733Z,3.57
2019-03-13T06:48:44.037Z,4.07
2019-03-13T06:49:49.341Z,5.03
2019-03-13T06:50:54.662Z,4.33
2019-03-13T06:51:59.844Z,3.90
2019-03-13T06:53:05.109Z,3.97
2019-03-13T06:54:10.388Z,3.67
2019-03-13T06:55:15.625Z,3.63
2019-03-13T06:56:20.883Z,4.07
2019-03-13T06:57:26.117Z,4.53
2019-03-13T06:58:37.146Z,3.37
2019-03-13T07:00:00.390Z,4.40
2019-03-13T07:01:33.865Z,4.43
2019-03-13T07:03:10.175Z,4.30
2019-03-13T07:04:39.649Z,4.57
2019-03-13T07:06:05.013Z,4.53
2019-03-13T07:07:32.189Z,5.63
2019-03-13T07:08:50.831Z,5.07
2019-03-13T07:10:13.734Z,4.20
2019-03-13T07:11:40.967Z,3.73
2019-03-13T07:13:07.265Z,4.37
2019-03-13T07:14:26.813Z,4.03
2019-03-13T07:15:49.756Z,3.90
2019-03-13T07:17:29.077Z,4.50
2019-03-13T07:18:59.676Z,4.43
2019-03-13T07:20:26.279Z,3.93
2019-03-13T07:22:05.800Z,4.40
2019-03-13T07:23:21.309Z,4.07
2019-03-13T07:24:36.342Z,5.00
2019-03-13T07:25:53.400Z,4.63
2019-03-13T07:27:17.609Z,5.43
2019-03-13T07:28:40.373Z,4.70
2019-03-13T07:30:10.474Z,6.17
2019-03-13T07:31:34.734Z,5.37
2019-03-13T07:32:56.599Z,5.47
2019-03-13T07:34:17.226Z,5.00
2019-03-13T07:35:44.413Z,5.87
2019-03-13T07:37:07.569Z,4.97
2019-03-13T07:38:34.603Z,4.27
2019-03-13T07:39:57.482Z,4.87
2019-03-13T07:41:09.442Z,4.93
2019-03-13T07:42:33.427Z,4.60
2019-03-13T07:44:09.769Z,4.73
2019-03-13T07:45:36.722Z,4.23
2019-03-13T07:46:57.525Z,5.43
2019-03-13T07:48:28.022Z,4.40
2019-03-13T07:50:07.873Z,4.57
2019-03-13T07:51:30.694Z,4.47
2019-03-13T07:53:00.970Z,4.93
2019-03-13T07:54:25.145Z,4.77
2019-03-13T07:56:01.702Z,4.50
2019-03-13T07:57:15.171Z,4.70
2019-03-13T07:58:38.276Z,5.20
2019-03-13T08:00:08.482Z,3.80
2019-03-13T08:01:24.123Z,5.00
2019-03-13T08:02:57.436Z,4.83
2019-03-13T08:04:31.911Z,5.00
2019-03-13T08:06:02.257Z,4.87
2019-03-13T08:07:21.690Z,5.17
2019-03-13T08:08:46.098Z,5.23
2019-03-13T08:10:12.296Z,5.07
2019-03-13T08:11:35.110Z,4.30
2019-03-13T08:12:59.258Z,5.30
2019-03-13T08:14:35.489Z,4.67
2019-03-13T08:16:02.340Z,5.40
2019-03-13T08:17:24.743Z,4.30
2019-03-13T08:18:48.954Z,4.73
2019-03-13T08:20:23.317Z,4.40
2019-03-13T08:21:47.160Z,4.30
2019-03-13T08:23:20.287Z,4.87
2019-03-13T08:24:45.294Z,3.90
2019-03-13T08:26:09.526Z,4.17
2019-03-13T08:27:32.140Z,4.30
2019-03-13T08:28:55.025Z,4.77
2019-03-13T08:30:20.398Z,4.30
2019-03-13T08:31:37.911Z,4.20
2019-03-13T08:33:02.111Z,4.70
2019-03-13T08:34:29.450Z,4.90
2019-03-13T08:35:56.466Z,4.87
2019-03-13T08:37:10.012Z,5.80
2019-03-13T08:38:30.684Z,5.20
2019-03-13T08:40:01.207Z,4.70
2019-03-13T08:41:20.487Z,5.27
2019-03-13T08:42:43.240Z,4.73
2019-03-13T08:44:25.928Z,4.67
2019-03-13T08:45:54.224Z,4.50
2019-03-13T08:47:21.478Z,4.77
2019-03-13T08:48:44.112Z,4.70
2019-03-13T08:50:14.291Z,4.50
2019-03-13T08:51:37.424Z,4.27
2019-03-13T08:53:04.636Z,4.67
2019-03-13T08:54:44.151Z,4.57
2019-03-13T08:56:14.474Z,5.40
2019-03-13T08:57:37.625Z,4.47
2019-03-13T08:59:10.668Z,5.03
2019-03-13T09:00:40.946Z,4.80
2019-03-13T09:02:14.409Z,4.43
2019-03-13T09:03:37.153Z,4.50
2019-03-13T09:05:08.272Z,5.50
2019-03-13T09:06:35.327Z,5.10
2019-03-13T09:07:50.433Z,5.67
2019-03-13T09:09:09.901Z,4.77
2019-03-13T09:10:33.351Z,5.87
2019-03-13T09:11:57.561Z,5.20
2019-03-13T09:13:21.812Z,5.23
2019-03-13T09:14:47.739Z,4.63
2019-03-13T09:15:59.921Z,5.50
2019-03-13T09:17:20.122Z,5.50
2019-03-13T09:18:38.881Z,4.57
2019-03-13T09:20:00.396Z,4.37
2019-03-13T09:21:33.430Z,4.47
2019-03-13T09:22:53.203Z,4.87
2019-03-13T09:24:12.362Z,4.87
2019-03-13T09:25:36.612Z,5.00
2019-03-13T09:27:00.387Z,5.87
2019-03-13T09:28:36.725Z,4.83
2019-03-13T09:29:52.750Z,4.80
2019-03-13T09:31:10.955Z,5.93
2019-03-13T09:32:38.185Z,5.20
2019-03-13T09:34:00.352Z,4.50
2019-03-13T09:35:12.556Z,5.13
2019-03-13T09:36:28.414Z,4.47
2019-03-13T09:37:51.258Z,5.27
2019-03-13T09:39:07.568Z,5.67
2019-03-13T09:40:25.374Z,4.60
2019-03-13T09:41:58.568Z,5.70
2019-03-13T09:43:34.817Z,4.57
2019-03-13T09:44:49.725Z,4.97
2019-03-13T09:46:12.370Z,4.87
2019-03-13T09:47:39.451Z,4.77
2019-03-13T09:49:15.916Z,5.03
2019-03-13T09:50:35.690Z,4.87
2019-03-13T09:51:49.422Z,4.90
2019-03-13T09:53:09.174Z,5.17
2019-03-13T09:54:23.654Z,5.37
2019-03-13T09:55:47.860Z,5.47
2019-03-13T09:57:17.974Z,4.90
2019-03-13T09:58:43.730Z,5.10
2019-03-13T10:00:11.173Z,4.80
2019-03-13T10:01:22.540Z,5.63
2019-03-13T10:02:46.895Z,5.53
2019-03-13T10:04:09.704Z,4.73
2019-03-13T10:05:33.868Z,5.23
2019-03-13T10:07:05.239Z,5.27
2019-03-13T10:08:38.655Z,5.87
2019-03-13T10:10:01.705Z,5.63
2019-03-13T10:11:23.096Z,4.93
2019-03-13T10:12:37.402Z,5.87
2019-03-13T10:13:49.638Z,5.50
2019-03-13T10:15:16.818Z,4.67
2019-03-13T10:16:43.787Z,5.53
2019-03-13T10:17:59.033Z,5.20
2019-03-13T10:19:33.394Z,5.17
2019-03-13T10:21:00.774Z,5.10
2019-03-13T10:22:19.971Z,5.13
2019-03-13T10:23:46.984Z,5.13
2019-03-13T10:25:04.907Z,5.87
2019-03-13T10:26:23.347Z,5.40
2019-03-13T10:27:38.083Z,5.70
2019-03-13T10:29:20.602Z,5.30
2019-03-13T10:30:39.635Z,4.70
2019-03-13T10:31:52.974Z,5.20
2019-03-13T10:33:18.882Z,5.23
2019-03-13T10:34:39.125Z,5.50
2019-03-13T10:36:03.367Z,5.40
2019-03-13T10:37:19.247Z,5.53
2019-03-13T10:38:45.638Z,5.83
2019-03-13T10:40:03.853Z,4.90
2019-03-13T10:41:28.626Z,4.57
2019-03-13T10:42:43.742Z,4.67
2019-03-13T10:44:01.852Z,5.03
2019-03-13T10:45:12.568Z,5.20
2019-03-13T10:46:47.875Z,4.33
2019-03-13T10:48:14.883Z,5.13
2019-03-13T10:49:29.684Z,4.67
2019-03-13T10:51:09.153Z,5.00
2019-03-13T10:52:32.071Z,5.17
2019-03-13T10:54:08.361Z,5.20
2019-03-13T10:55:38.536Z,5.07
2019-03-13T10:57:11.737Z,5.40
2019-03-13T10:58:47.958Z,5.17
2019-03-13T11:00:01.314Z,5.57
2019-03-13T11:01:27.341Z,5.57
2019-03-13T11:02:57.524Z,5.40
2019-03-13T11:04:17.657Z,6.37
2019-03-13T11:06:00.300Z,5.73
2019-03-13T11:07:13.688Z,6.43
2019-03-13T11:08:27.398Z,5.67
2019-03-13T11:09:48.725Z,6.20
2019-03-13T11:11:03.466Z,5.70
2019-03-13T11:12:19.247Z,6.00
2019-03-13T11:13:35.807Z,5.80
2019-03-13T11:15:15.173Z,5.70
2019-03-13T11:16:27.191Z,5.70
2019-03-13T11:17:51.261Z,6.77
2019-03-13T11:19:15.511Z,6.17
2019-03-13T11:20:38.646Z,5.47
2019-03-13T11:22:15.213Z,6.33
2019-03-13T11:23:42.487Z,5.77
2019-03-13T11:24:53.439Z,5.80
2019-03-13T11:26:04.461Z,6.20
2019-03-13T11:27:31.030Z,5.67
2019-03-13T11:28:51.609Z,6.23
2019-03-13T11:30:09.554Z,6.03
2019-03-13T11:31:36.661Z,6.33
2019-03-13T11:32:55.406Z,6.17
2019-03-13T11:34:19.680Z,7.00
2019-03-13T11:35:43.985Z,6.23
